Time;durP1;ratioP1;P1;durP2;ratioP2;P2;SDS_P1;SDS_P2;PMS_P1;PMS_P2;Temp;Humidity;BMP_temperature;BMP_pressure;BME280_temperature;BME280_humidity;BME280_pressure;Samples;Min_cycle;Max_cycle;Signal;HPM_P1;HPM_P2
2024/01/10 00:00:21;;;;;;;10.98;5.50;;;;;;;;;;5108640;28;20023;-74
2024/01/10 00:02:46;;;;;;;8.20;4.10;;;;;;;;;;5111460;28;20417;-74
2024/01/10 00:05:11;;;;;;;8.73;4.15;;;;;;;;;;5106829;28;20032;-74
2024/01/10 00:07:37;;;;;;;13.60;4.70;;;;;;;;;;5107426;28;20020;-74
2024/01/10 00:10:03;;;;;;;7.22;4.32;;;;;;;;;;5106330;28;20273;-74
2024/01/10 00:12:33;;;;;;;7.47;4.05;;;;;;;;;;5107431;28;20015;-74
2024/01/10 00:14:58;;;;;;;8.30;4.47;;;;;;;;;;5108326;28;20466;-74
2024/01/10 00:17:23;;;;;;;9.18;4.20;;;;;;;;;;5107012;28;20070;-74
2024/01/10 00:19:48;;;;;;;7.75;4.07;;;;;;;;;;5109622;28;20051;-74
2024/01/10 00:22:14;;;;;;;8.07;4.32;;;;;;;;;;5112935;28;20080;-74
2024/01/10 00:24:39;;;;;;;8.80;4.40;;;;;;;;;;5106478;28;20023;-74
2024/01/10 00:27:05;;;;;;;8.25;4.60;;;;;;;;;;5107579;28;20281;-74
2024/01/10 00:29:30;;;;;;;7.57;4.30;;;;;;;;;;5105864;27;20035;-74
2024/01/10 00:31:59;;;;;;;7.97;4.27;;;;;;;;;;5106779;28;20011;-74
2024/01/10 00:34:24;;;;;;;8.90;4.32;;;;;;;;;;5111773;28;20357;-74
2024/01/10 00:36:49;;;;;;;8.48;3.95;;;;;;;;;;5104906;28;20080;-74
2024/01/10 00:39:15;;;;;;;8.98;4.60;;;;;;;;;;5106582;28;20026;-74
2024/01/10 00:41:40;;;;;;;9.23;4.15;;;;;;;;;;5114303;28;20019;-74
2024/01/10 00:44:06;;;;;;;9.17;4.83;;;;;;;;;;5112765;28;20015;-74
2024/01/10 00:46:31;;;;;;;9.40;4.32;;;;;;;;;;5109852;28;20274;-74
2024/01/10 00:48:56;;;;;;;7.28;3.92;;;;;;;;;;5106406;28;20023;-74
2024/01/10 00:51:21;;;;;;;10.20;4.35;;;;;;;;;;5107317;28;20368;-74
2024/01/10 00:53:46;;;;;;;8.63;4.28;;;;;;;;;;5106132;28;20069;-74
2024/01/10 00:56:12;;;;;;;9.20;4.80;;;;;;;;;;5109215;28;20126;-74
2024/01/10 00:58:37;;;;;;;10.45;5.00;;;;;;;;;;5104422;28;20668;-74
2024/01/10 01:01:02;;;;;;;11.38;5.60;;;;;;;;;;5112913;28;20035;-74
2024/01/10 01:03:27;;;;;;;9.05;5.18;;;;;;;;;;5105583;28;20027;-74
2024/01/10 01:05:52;;;;;;;11.35;5.82;;;;;;;;;;5111128;28;20027;-74
2024/01/10 01:08:18;;;;;;;14.75;5.22;;;;;;;;;;5103320;28;20383;-74
2024/01/10 01:10:43;;;;;;;7.85;5.18;;;;;;;;;;5108597;28;20019;-74
2024/01/10 01:13:08;;;;;;;9.27;4.90;;;;;;;;;;5104281;28;20026;-74
2024/01/10 01:15:33;;;;;;;9.43;4.80;;;;;;;;;;5108868;28;20378;-74
2024/01/10 01:17:59;;;;;;;8.88;4.63;;;;;;;;;;5105483;28;20285;-74
2024/01/10 01:20:24;;;;;;;8.73;5.20;;;;;;;;;;5102616;28;20050;-74
2024/01/10 01:22:49;;;;;;;9.10;4.60;;;;;;;;;;5107140;28;20277;-74
2024/01/10 01:25:14;;;;;;;12.43;4.97;;;;;;;;;;5111829;28;20027;-74
2024/01/10 01:27:39;;;;;;;9.73;5.40;;;;;;;;;;5105745;28;20069;-74
2024/01/10 01:30:05;;;;;;;11.15;4.78;;;;;;;;;;5107769;28;20054;-74
2024/01/10 01:32:30;;;;;;;9.57;4.72;;;;;;;;;;5103422;28;20024;-74
2024/01/10 01:34:55;;;;;;;9.30;4.82;;;;;;;;;;5105793;28;20065;-74
2024/01/10 01:37:20;;;;;;;6.90;4.22;;;;;;;;;;5105274;28;20482;-74
2024/01/10 01:39:46;;;;;;;9.70;4.43;;;;;;;;;;5104103;28;20033;-74
2024/01/10 01:42:11;;;;;;;9.07;4.50;;;;;;;;;;5109676;28;20269;-74
2024/01/10 01:44:36;;;;;;;10.20;4.60;;;;;;;;;;5105005;28;20269;-74
2024/01/10 01:47:02;;;;;;;8.10;4.63;;;;;;;;;;5104650;28;20023;-74
2024/01/10 01:49:28;;;;;;;8.73;4.40;;;;;;;;;;5105395;28;20019;-74
2024/01/10 01:51:53;;;;;;;9.63;4.30;;;;;;;;;;5104497;28;20028;-74
2024/01/10 01:54:20;;;;;;;9.30;4.63;;;;;;;;;;5104647;28;20367;-74
2024/01/10 01:56:45;;;;;;;7.57;4.00;;;;;;;;;;5107851;28;20036;-74
2024/01/10 01:59:11;;;;;;;8.93;4.47;;;;;;;;;;5105599;28;20020;-74
2024/01/10 02:01:36;;;;;;;8.32;4.40;;;;;;;;;;5109337;28;20482;-74
2024/01/10 02:04:02;;;;;;;8.65;4.00;;;;;;;;;;5103551;28;20031;-74
2024/01/10 02:06:29;;;;;;;8.98;4.35;;;;;;;;;;5107091;28;20525;-74
2024/01/10 02:08:54;;;;;;;8.27;4.57;;;;;;;;;;5101333;28;20012;-74
2024/01/10 02:11:20;;;;;;;8.77;4.72;;;;;;;;;;5112041;28;20031;-74
2024/01/10 02:13:46;;;;;;;10.35;5.25;;;;;;;;;;5107291;28;20099;-75
2024/01/10 02:16:11;;;;;;;10.68;4.80;;;;;;;;;;5109330;28;20122;-74
2024/01/10 02:18:37;;;;;;;13.15;4.60;;;;;;;;;;5104296;28;20020;-74
2024/01/10 02:21:03;;;;;;;9.65;4.43;;;;;;;;;;5104408;28;20040;-74
2024/01/10 02:23:28;;;;;;;8.90;4.05;;;;;;;;;;5104810;28;20081;-74
2024/01/10 02:25:53;;;;;;;8.90;4.82;;;;;;;;;;5104920;28;20018;-74
2024/01/10 02:28:18;;;;;;;8.32;4.40;;;;;;;;;;5102477;28;20024;-74
2024/01/10 02:30:43;;;;;;;7.50;3.93;;;;;;;;;;5110069;28;20015;-74
2024/01/10 02:33:08;;;;;;;8.88;4.63;;;;;;;;;;5102900;28;20395;-74
2024/01/10 02:35:34;;;;;;;8.40;4.17;;;;;;;;;;5107736;28;20427;-74
2024/01/10 02:37:59;;;;;;;11.05;5.03;;;;;;;;;;5101866;28;20331;-74
2024/01/10 02:40:24;;;;;;;8.52;4.40;;;;;;;;;;5108716;28;20026;-74
2024/01/10 02:42:51;;;;;;;9.25;4.30;;;;;;;;;;5107512;28;20023;-74
2024/01/10 02:45:16;;;;;;;9.80;4.88;;;;;;;;;;5106625;28;20041;-74
2024/01/10 02:47:41;;;;;;;9.07;4.90;;;;;;;;;;5106277;28;20096;-74
2024/01/10 02:50:06;;;;;;;8.85;4.60;;;;;;;;;;5108269;28;20443;-74
2024/01/10 02:52:32;;;;;;;13.18;4.93;;;;;;;;;;5104615;28;20019;-74
2024/01/10 02:54:57;;;;;;;10.15;4.32;;;;;;;;;;5108714;28;20047;-74
2024/01/10 02:57:22;;;;;;;8.60;4.30;;;;;;;;;;5103419;28;20023;-74
2024/01/10 02:59:47;;;;;;;8.77;4.68;;;;;;;;;;5110338;28;20522;-74
2024/01/10 03:02:13;;;;;;;7.85;4.75;;;;;;;;;;5108226;28;20118;-74
2024/01/10 03:04:38;;;;;;;8.35;4.55;;;;;;;;;;5103735;28;20095;-74
2024/01/10 03:07:03;;;;;;;8.85;4.32;;;;;;;;;;5103395;28;20464;-74
2024/01/10 03:09:29;;;;;;;9.52;4.40;;;;;;;;;;5109795;28;20019;-74
2024/01/10 03:11:54;;;;;;;8.55;4.60;;;;;;;;;;5102763;28;20452;-74
2024/01/10 03:14:19;;;;;;;8.73;4.68;;;;;;;;;;5104008;28;20024;-74
2024/01/10 03:16:45;;;;;;;8.67;4.53;;;;;;;;;;5110208;28;20023;-74
2024/01/10 03:19:11;;;;;;;10.77;5.00;;;;;;;;;;5104019;28;20266;-74
2024/01/10 03:21:36;;;;;;;8.10;4.40;;;;;;;;;;5104502;28;20107;-74
2024/01/10 03:24:01;;;;;;;7.72;4.30;;;;;;;;;;5103594;28;20100;-74
2024/01/10 03:26:27;;;;;;;8.60;4.22;;;;;;;;;;5103125;28;20016;-74
2024/01/10 03:28:52;;;;;;;7.97;4.32;;;;;;;;;;5106189;28;20035;-74
2024/01/10 03:31:17;;;;;;;11.77;5.07;;;;;;;;;;5101754;28;20015;-74
2024/01/10 03:33:42;;;;;;;8.68;4.88;;;;;;;;;;5109289;28;20023;-74
2024/01/10 03:36:11;;;;;;;10.10;4.85;;;;;;;;;;5112460;28;20429;-74
2024/01/10 03:38:36;;;;;;;10.18;4.63;;;;;;;;;;5103326;28;20023;-74
2024/01/10 03:41:01;;;;;;;8.90;4.45;;;;;;;;;;5105675;28;20024;-74
2024/01/10 03:43:26;;;;;;;8.27;4.38;;;;;;;;;;5100646;28;20081;-74
2024/01/10 03:45:51;;;;;;;9.07;4.63;;;;;;;;;;5098616;28;20047;-73
2024/01/10 03:48:17;;;;;;;9.98;4.38;;;;;;;;;;5111333;28;20106;-74
2024/01/10 03:50:42;;;;;;;9.05;4.32;;;;;;;;;;5103279;28;20020;-74
2024/01/10 03:53:07;;;;;;;8.53;4.33;;;;;;;;;;5098216;28;20498;-74
2024/01/10 03:55:32;;;;;;;9.43;4.72;;;;;;;;;;5100884;28;20368;-74
2024/01/10 03:57:57;;;;;;;7.88;4.00;;;;;;;;;;5101448;28;20532;-74
2024/01/10 04:00:23;;;;;;;7.10;4.50;;;;;;;;;;5101819;28;20012;-74
2024/01/10 04:02:48;;;;;;;8.98;4.10;;;;;;;;;;5101362;28;20466;-74
2024/01/10 04:05:13;;;;;;;8.40;4.07;;;;;;;;;;5104259;28;20019;-74
2024/01/10 04:07:42;;;;;;;8.68;4.60;;;;;;;;;;5100156;28;20027;-74
2024/01/10 04:10:10;;;;;;;7.68;4.05;;;;;;;;;;5100876;28;20023;-74
2024/01/10 04:12:35;;;;;;;9.85;5.00;;;;;;;;;;5109977;28;20107;-74
2024/01/10 04:15:00;;;;;;;9.07;4.40;;;;;;;;;;5106194;28;20513;-74
2024/01/10 04:17:25;;;;;;;9.53;4.60;;;;;;;;;;5108132;28;20387;-74
2024/01/10 04:19:51;;;;;;;9.15;4.30;;;;;;;;;;5105887;28;20308;-74
2024/01/10 04:22:16;;;;;;;9.52;4.25;;;;;;;;;;5109685;28;20069;-74
2024/01/10 04:24:41;;;;;;;10.07;4.97;;;;;;;;;;5103811;28;20099;-74
2024/01/10 04:27:06;;;;;;;10.30;4.50;;;;;;;;;;5110671;28;20057;-74
2024/01/10 04:29:31;;;;;;;9.05;4.93;;;;;;;;;;5106223;28;20150;-74
2024/01/10 04:31:57;;;;;;;7.37;4.00;;;;;;;;;;5114207;28;20031;-74
2024/01/10 04:34:23;;;;;;;8.87;4.90;;;;;;;;;;5103678;28;20261;-74
2024/01/10 04:36:48;;;;;;;8.68;4.88;;;;;;;;;;5110593;28;20411;-74
2024/01/10 04:39:13;;;;;;;7.90;4.30;;;;;;;;;;5108736;28;20047;-74
2024/01/10 04:41:39;;;;;;;8.73;4.37;;;;;;;;;;5112402;28;20269;-74
2024/01/10 04:44:04;;;;;;;8.40;4.43;;;;;;;;;;5111809;28;20299;-74
2024/01/10 04:46:30;;;;;;;9.80;4.53;;;;;;;;;;5104460;28;20022;-73
2024/01/10 04:48:55;;;;;;;8.60;4.60;;;;;;;;;;5106327;28;20478;-74
2024/01/10 04:51:20;;;;;;;9.18;5.10;;;;;;;;;;5112780;28;20266;-73
2024/01/10 04:53:45;;;;;;;10.57;4.65;;;;;;;;;;5112412;28;20023;-74
2024/01/10 04:56:10;;;;;;;8.50;4.30;;;;;;;;;;5105498;28;20554;-74
2024/01/10 04:58:36;;;;;;;8.73;4.50;;;;;;;;;;5104034;28;20020;-73
2024/01/10 05:01:02;;;;;;;7.53;4.05;;;;;;;;;;5109441;28;20304;-73
2024/01/10 05:03:27;;;;;;;10.52;5.15;;;;;;;;;;5104375;28;20474;-73
2024/01/10 05:05:52;;;;;;;8.00;4.55;;;;;;;;;;5107393;28;20019;-74
2024/01/10 05:08:20;;;;;;;7.70;4.23;;;;;;;;;;5110000;28;20352;-74
2024/01/10 05:10:45;;;;;;;13.45;4.43;;;;;;;;;;5108719;28;20264;-74
2024/01/10 05:13:10;;;;;;;6.65;4.47;;;;;;;;;;5112723;28;20011;-74
2024/01/10 05:15:35;;;;;;;9.75;4.85;;;;;;;;;;5104821;28;20460;-73
2024/01/10 05:18:01;;;;;;;11.33;5.37;;;;;;;;;;5105408;28;20474;-73
2024/01/10 05:20:26;;;;;;;9.77;5.53;;;;;;;;;;5110192;28;20274;-74
2024/01/10 05:22:51;;;;;;;8.88;4.60;;;;;;;;;;5105223;28;20028;-74
2024/01/10 05:25:18;;;;;;;9.23;4.47;;;;;;;;;;5109176;28;20058;-73
2024/01/10 05:27:43;;;;;;;10.10;4.88;;;;;;;;;;5109097;28;20424;-74
2024/01/10 05:30:08;;;;;;;9.02;4.65;;;;;;;;;;5112743;28;20015;-73
2024/01/10 05:32:34;;;;;;;11.18;4.93;;;;;;;;;;5106622;28;20024;-73
2024/01/10 05:34:59;;;;;;;9.15;5.05;;;;;;;;;;5109614;28;20493;-74
2024/01/10 05:37:24;;;;;;;10.35;5.10;;;;;;;;;;5103943;28;20043;-74
2024/01/10 05:39:49;;;;;;;9.70;4.43;;;;;;;;;;5106716;28;20456;-73
2024/01/10 05:42:15;;;;;;;8.68;4.53;;;;;;;;;;5106790;28;20433;-73
2024/01/10 05:44:40;;;;;;;10.35;5.05;;;;;;;;;;5106729;28;20027;-73
2024/01/10 05:47:05;;;;;;;7.43;4.55;;;;;;;;;;5101989;28;20016;-73
2024/01/10 05:49:30;;;;;;;9.73;5.28;;;;;;;;;;5112216;28;20020;-74
2024/01/10 05:51:55;;;;;;;8.65;4.43;;;;;;;;;;5104057;28;20023;-74
2024/01/10 05:54:21;;;;;;;9.57;4.43;;;;;;;;;;5107715;28;20040;-74
2024/01/10 05:56:47;;;;;;;11.85;4.78;;;;;;;;;;5104653;28;20298;-73
2024/01/10 05:59:13;;;;;;;10.93;4.70;;;;;;;;;;5109618;28;20012;-74
2024/01/10 06:01:39;;;;;;;7.50;4.50;;;;;;;;;;5106636;28;20020;-73
2024/01/10 06:04:04;;;;;;;10.77;4.90;;;;;;;;;;5104844;28;20042;-74
2024/01/10 06:06:32;;;;;;;11.30;5.75;;;;;;;;;;5104805;27;20015;-73
2024/01/10 06:08:57;;;;;;;11.95;5.32;;;;;;;;;;5102985;28;20027;-73
2024/01/10 06:11:22;;;;;;;10.35;5.25;;;;;;;;;;5105216;28;20022;-73
2024/01/10 06:13:47;;;;;;;11.10;6.25;;;;;;;;;;5102000;28;20023;-74
2024/01/10 06:16:13;;;;;;;8.82;4.53;;;;;;;;;;5109080;28;20470;-74
2024/01/10 06:18:38;;;;;;;10.18;4.65;;;;;;;;;;5105238;28;20016;-73
2024/01/10 06:21:04;;;;;;;9.90;5.50;;;;;;;;;;5103326;28;20039;-74
2024/01/10 06:23:29;;;;;;;9.05;5.05;;;;;;;;;;5105102;28;20070;-73
2024/01/10 06:25:54;;;;;;;8.52;4.15;;;;;;;;;;5102899;28;20432;-73
2024/01/10 06:28:20;;;;;;;12.40;5.10;;;;;;;;;;5104001;28;20073;-73
2024/01/10 06:30:45;;;;;;;8.93;4.88;;;;;;;;;;5104868;28;20020;-74
2024/01/10 06:33:10;;;;;;;11.75;4.57;;;;;;;;;;5102159;28;20099;-74
2024/01/10 06:35:35;;;;;;;9.63;4.90;;;;;;;;;;5111676;28;20356;-74
2024/01/10 06:38:03;;;;;;;11.20;5.07;;;;;;;;;;5101875;28;20035;-74
2024/01/10 06:40:29;;;;;;;14.23;6.78;;;;;;;;;;5103311;28;20028;-74
2024/01/10 06:42:54;;;;;;;15.20;5.68;;;;;;;;;;5102529;28;20108;-74
2024/01/10 06:45:20;;;;;;;12.13;4.70;;;;;;;;;;5102730;28;20475;-74
2024/01/10 06:47:45;;;;;;;9.52;5.05;;;;;;;;;;5106012;28;20392;-74
2024/01/10 06:50:10;;;;;;;8.27;4.80;;;;;;;;;;5102396;28;20027;-73
2024/01/10 06:52:35;;;;;;;10.80;5.20;;;;;;;;;;5107345;28;20277;-73
2024/01/10 06:55:00;;;;;;;11.40;5.10;;;;;;;;;;5107332;28;20047;-74
2024/01/10 06:57:26;;;;;;;13.85;5.63;;;;;;;;;;5100962;28;20508;-73
2024/01/10 06:59:53;;;;;;;8.30;5.07;;;;;;;;;;5106051;28;20023;-73
2024/01/10 07:02:18;;;;;;;9.88;5.03;;;;;;;;;;5106886;28;20011;-74
2024/01/10 07:04:43;;;;;;;12.88;5.97;;;;;;;;;;5108077;28;20516;-73
2024/01/10 07:07:08;;;;;;;16.27;6.35;;;;;;;;;;5100934;28;20016;-74
2024/01/10 07:09:33;;;;;;;10.57;5.25;;;;;;;;;;5107251;28;20028;-73
2024/01/10 07:11:59;;;;;;;13.05;5.32;;;;;;;;;;5101671;28;20024;-74
2024/01/10 07:14:24;;;;;;;16.42;5.65;;;;;;;;;;5110907;28;20020;-74
2024/01/10 07:16:49;;;;;;;12.70;5.65;;;;;;;;;;5103093;28;20071;-74
2024/01/10 07:19:14;;;;;;;14.85;5.95;;;;;;;;;;5109679;28;20035;-73
2024/01/10 07:21:40;;;;;;;9.95;5.93;;;;;;;;;;5102655;28;20359;-73
2024/01/10 07:24:06;;;;;;;11.98;5.93;;;;;;;;;;5096800;28;20119;-73
2024/01/10 07:26:31;;;;;;;11.55;6.47;;;;;;;;;;5107192;28;20107;-73
2024/01/10 07:28:56;;;;;;;9.88;5.47;;;;;;;;;;5106552;28;20112;-73
2024/01/10 07:31:21;;;;;;;13.45;5.43;;;;;;;;;;5108142;28;20024;-73
2024/01/10 07:33:46;;;;;;;10.10;5.88;;;;;;;;;;5108991;28;20015;-74
2024/01/10 07:36:11;;;;;;;10.87;5.50;;;;;;;;;;5102293;28;20074;-73
2024/01/10 07:38:37;;;;;;;9.82;5.57;;;;;;;;;;5103517;28;20291;-73
2024/01/10 07:41:02;;;;;;;12.90;5.68;;;;;;;;;;5105360;28;20065;-73
2024/01/10 07:43:27;;;;;;;15.82;7.18;;;;;;;;;;5102841;28;20387;-73
2024/01/10 07:45:53;;;;;;;13.90;6.35;;;;;;;;;;5113376;28;20474;-73
2024/01/10 07:48:18;;;;;;;15.75;6.47;;;;;;;;;;5107956;28;20072;-72
2024/01/10 07:50:43;;;;;;;9.93;5.53;;;;;;;;;;5113026;28;20447;-73
2024/01/10 07:53:08;;;;;;;11.83;5.77;;;;;;;;;;5109131;28;20016;-72
2024/01/10 07:55:33;;;;;;;11.70;5.97;;;;;;;;;;5107688;28;20293;-73
2024/01/10 07:57:58;;;;;;;14.20;6.73;;;;;;;;;;5110288;28;20181;-73
2024/01/10 08:00:24;;;;;;;10.13;5.07;;;;;;;;;;5104534;28;20261;-73
2024/01/10 08:02:50;;;;;;;11.15;5.97;;;;;;;;;;5099439;28;20036;-73
2024/01/10 08:05:15;;;;;;;12.07;5.63;;;;;;;;;;5107528;28;20024;-73
2024/01/10 08:07:40;;;;;;;9.75;5.47;;;;;;;;;;5105071;28;20361;-73
2024/01/10 08:10:09;;;;;;;13.48;6.35;;;;;;;;;;5109442;28;20027;-73
2024/01/10 08:12:34;;;;;;;12.07;5.90;;;;;;;;;;5103873;28;20539;-73
2024/01/10 08:15:00;;;;;;;12.68;5.68;;;;;;;;;;5110156;28;20055;-73
2024/01/10 08:17:25;;;;;;;14.20;6.60;;;;;;;;;;5104077;28;20048;-73
2024/01/10 08:19:51;;;;;;;11.43;6.53;;;;;;;;;;5110949;28;20024;-73
2024/01/10 08:22:17;;;;;;;15.23;6.88;;;;;;;;;;5103542;28;20096;-73
2024/01/10 08:24:43;;;;;;;11.10;5.55;;;;;;;;;;5109971;28;20441;-73
2024/01/10 08:27:09;;;;;;;12.30;6.82;;;;;;;;;;5105493;27;20028;-73
2024/01/10 08:29:35;;;;;;;16.85;7.38;;;;;;;;;;5108680;28;20022;-73
2024/01/10 08:32:00;;;;;;;16.92;7.45;;;;;;;;;;5106193;28;20031;-72
2024/01/10 08:34:26;;;;;;;13.52;6.35;;;;;;;;;;5105873;28;20008;-73
2024/01/10 08:36:51;;;;;;;10.30;5.55;;;;;;;;;;5106759;28;20446;-73
2024/01/10 08:39:17;;;;;;;12.95;6.20;;;;;;;;;;5105816;28;20099;-73
2024/01/10 08:41:44;;;;;;;10.95;6.22;;;;;;;;;;5102625;28;20103;-73
2024/01/10 08:44:09;;;;;;;13.40;6.63;;;;;;;;;;5110144;28;20019;-73
2024/01/10 08:46:34;;;;;;;13.70;6.88;;;;;;;;;;5103644;28;20081;-73
2024/01/10 08:48:59;;;;;;;14.60;6.55;;;;;;;;;;5107644;28;20027;-73
2024/01/10 08:51:25;;;;;;;12.25;6.32;;;;;;;;;;5105433;28;20518;-73
2024/01/10 08:53:50;;;;;;;13.48;6.22;;;;;;;;;;5105752;28;20097;-74
2024/01/10 08:56:15;;;;;;;15.05;6.75;;;;;;;;;;5105234;28;20028;-73
2024/01/10 08:58:40;;;;;;;12.30;7.05;;;;;;;;;;5104724;28;21277;-73
2024/01/10 09:01:06;;;;;;;13.57;6.13;;;;;;;;;;5105916;28;20016;-73
2024/01/10 09:03:31;;;;;;;16.48;7.25;;;;;;;;;;5103910;28;20028;-73
2024/01/10 09:05:56;;;;;;;14.45;7.10;;;;;;;;;;5106456;28;20016;-73
2024/01/10 09:08:22;;;;;;;15.40;7.63;;;;;;;;;;5105930;28;20103;-73
2024/01/10 09:10:49;;;;;;;13.98;7.80;;;;;;;;;;5104518;28;20464;-73
2024/01/10 09:13:14;;;;;;;14.50;7.65;;;;;;;;;;5106396;28;20103;-73
2024/01/10 09:15:39;;;;;;;16.00;7.18;;;;;;;;;;5104444;28;20047;-73
2024/01/10 09:18:05;;;;;;;13.90;6.72;;;;;;;;;;5105712;28;20119;-73
2024/01/10 09:20:30;;;;;;;15.65;7.75;;;;;;;;;;5106578;28;20471;-73
2024/01/10 09:22:55;;;;;;;13.65;7.07;;;;;;;;;;5103902;28;20032;-73
2024/01/10 09:25:20;;;;;;;17.20;7.90;;;;;;;;;;5108169;28;20020;-73
2024/01/10 09:27:46;;;;;;;15.40;7.17;;;;;;;;;;5102691;28;20273;-73
2024/01/10 09:30:12;;;;;;;14.85;7.03;;;;;;;;;;5110236;28;20258;-73
2024/01/10 09:32:37;;;;;;;15.60;7.78;;;;;;;;;;5102218;28;20085;-73
2024/01/10 09:35:03;;;;;;;15.27;7.35;;;;;;;;;;5109898;28;20102;-73
2024/01/10 09:37:28;;;;;;;16.25;7.00;;;;;;;;;;5101610;28;20032;-73
2024/01/10 09:39:53;;;;;;;14.37;7.23;;;;;;;;;;5108989;28;20020;-73
2024/01/10 09:42:20;;;;;;;15.48;8.00;;;;;;;;;;5098436;28;20360;-73
2024/01/10 09:44:46;;;;;;;16.58;7.85;;;;;;;;;;5105518;28;20145;-73
2024/01/10 09:47:13;;;;;;;13.32;7.30;;;;;;;;;;5102772;28;20034;-73
2024/01/10 09:49:38;;;;;;;12.40;6.68;;;;;;;;;;5107889;28;20012;-73
2024/01/10 09:52:04;;;;;;;18.00;7.55;;;;;;;;;;5101439;28;20456;-73
2024/01/10 09:54:30;;;;;;;19.73;8.00;;;;;;;;;;5108809;28;20042;-73
2024/01/10 09:56:55;;;;;;;22.73;8.90;;;;;;;;;;5101507;28;20054;-73
2024/01/10 09:59:21;;;;;;;18.13;7.50;;;;;;;;;;5108487;28;20069;-73
2024/01/10 10:01:46;;;;;;;17.67;7.45;;;;;;;;;;5102065;28;20105;-73
2024/01/10 10:04:12;;;;;;;17.70;8.20;;;;;;;;;;5106732;28;20011;-73
2024/01/10 10:06:37;;;;;;;17.50;8.05;;;;;;;;;;5103259;28;20016;-73
2024/01/10 10:09:03;;;;;;;15.80;8.02;;;;;;;;;;5104550;28;20348;-73
2024/01/10 10:11:29;;;;;;;15.50;7.75;;;;;;;;;;5105380;28;20023;-74
2024/01/10 10:13:54;;;;;;;17.27;8.20;;;;;;;;;;5103188;28;20494;-74
2024/01/10 10:16:25;;;;;;;15.68;7.95;;;;;;;;;;5105248;28;20067;-74
2024/01/10 10:18:50;;;;;;;18.00;9.68;;;;;;;;;;5103434;28;20028;-74
2024/01/10 10:21:16;;;;;;;20.15;9.00;;;;;;;;;;5108480;28;20040;-75
2024/01/10 10:23:57;;;;;;;18.27;8.70;;;;;;;;;;5109984;28;20024;-73
2024/01/10 10:26:22;;;;;;;19.63;9.43;;;;;;;;;;5107326;28;20015;-73
2024/01/10 10:28:48;;;;;;;16.42;8.45;;;;;;;;;;5103485;28;20102;-73
2024/01/10 10:31:14;;;;;;;15.77;8.05;;;;;;;;;;5104473;28;20023;-73
2024/01/10 10:33:40;;;;;;;18.02;8.40;;;;;;;;;;5105917;28;20080;-74
2024/01/10 10:36:05;;;;;;;20.15;8.45;;;;;;;;;;5103885;28;20461;-74
2024/01/10 10:38:31;;;;;;;16.15;8.07;;;;;;;;;;5104982;28;20019;-74
2024/01/10 10:40:57;;;;;;;20.60;8.95;;;;;;;;;;5100480;28;20023;-74
2024/01/10 10:43:23;;;;;;;15.65;8.27;;;;;;;;;;5108866;28;20048;-74
2024/01/10 10:45:48;;;;;;;15.77;8.48;;;;;;;;;;5108315;28;20043;-74
2024/01/10 10:48:16;;;;;;;15.52;8.93;;;;;;;;;;5102598;28;20015;-74
2024/01/10 10:50:44;;;;;;;16.77;8.38;;;;;;;;;;5104096;28;20107;-74
2024/01/10 10:53:09;;;;;;;16.25;9.07;;;;;;;;;;5103230;28;20023;-74
2024/01/10 10:55:35;;;;;;;16.40;8.48;;;;;;;;;;5103087;28;20046;-74
2024/01/10 10:58:01;;;;;;;17.17;8.57;;;;;;;;;;5104378;28;20040;-74
2024/01/10 11:00:27;;;;;;;18.55;9.15;;;;;;;;;;5102605;28;20036;-74
2024/01/10 11:02:55;;;;;;;19.35;8.75;;;;;;;;;;5103650;28;20023;-74
2024/01/10 11:05:21;;;;;;;18.10;9.05;;;;;;;;;;5103721;28;20020;-74
2024/01/10 11:07:46;;;;;;;15.20;7.57;;;;;;;;;;5103858;28;20016;-74
2024/01/10 11:10:13;;;;;;;17.45;8.88;;;;;;;;;;5109166;28;20386;-74
2024/01/10 11:12:59;;;;;;;16.33;8.45;;;;;;;;;;5101173;28;20442;-74
2024/01/10 11:15:30;;;;;;;22.73;8.50;;;;;;;;;;5104377;28;20463;-74
2024/01/10 11:17:58;;;;;;;16.20;8.25;;;;;;;;;;5102320;28;20046;-74
2024/01/10 11:20:39;;;;;;;18.35;8.40;;;;;;;;;;5105196;28;20012;-74
2024/01/10 11:23:14;;;;;;;16.45;8.05;;;;;;;;;;5102714;28;20031;-73
2024/01/10 11:25:40;;;;;;;18.55;9.05;;;;;;;;;;5104047;28;20040;-74
2024/01/10 11:28:05;;;;;;;18.05;8.35;;;;;;;;;;5105430;28;20024;-73
2024/01/10 11:30:48;;;;;;;17.75;8.98;;;;;;;;;;5105662;28;20020;-74
2024/01/10 11:33:23;;;;;;;17.02;8.27;;;;;;;;;;5103582;28;20026;-73
2024/01/10 11:36:09;;;;;;;23.33;10.20;;;;;;;;;;5109244;28;20016;-73
2024/01/10 11:38:38;;;;;;;18.00;9.57;;;;;;;;;;5105797;28;20027;-73
2024/01/10 11:41:04;;;;;;;17.50;9.98;;;;;;;;;;5110739;28;20012;-74
2024/01/10 11:43:29;;;;;;;18.30;9.32;;;;;;;;;;5104531;28;20077;-73
2024/01/10 11:45:55;;;;;;;17.85;8.20;;;;;;;;;;5102053;28;20377;-74
2024/01/10 11:48:27;;;;;;;18.15;8.30;;;;;;;;;;5103213;28;20118;-74
2024/01/10 11:50:52;;;;;;;18.05;8.85;;;;;;;;;;5106966;28;20463;-73
2024/01/10 11:53:36;;;;;;;18.63;8.55;;;;;;;;;;5101059;28;20066;-74
2024/01/10 11:56:01;;;;;;;;;;;;;;;;;;5101943;28;20407;-73
2024/01/10 11:58:26;;;;;;;17.88;9.18;;;;;;;;;;5101134;28;20260;-72
2024/01/10 12:00:52;;;;;;;17.67;9.30;;;;;;;;;;5107396;28;20020;-73
2024/01/10 12:03:18;;;;;;;18.67;9.00;;;;;;;;;;5103380;28;20026;-73
2024/01/10 12:05:44;;;;;;;17.67;9.95;;;;;;;;;;5102183;28;20024;-73
2024/01/10 12:08:09;;;;;;;19.83;9.18;;;;;;;;;;5109724;28;20023;-73
2024/01/10 12:10:37;;;;;;;20.40;8.95;;;;;;;;;;5102126;28;20471;-74
2024/01/10 12:13:03;;;;;;;15.45;8.48;;;;;;;;;;5109631;28;20020;-74
2024/01/10 12:15:28;;;;;;;19.38;9.00;;;;;;;;;;5103616;28;20028;-74
2024/01/10 12:17:53;;;;;;;19.20;9.48;;;;;;;;;;5101763;28;20085;-73
2024/01/10 12:20:18;;;;;;;19.27;8.60;;;;;;;;;;5105123;28;20012;-74
2024/01/10 12:22:44;;;;;;;18.43;9.47;;;;;;;;;;5100220;28;20776;-73
2024/01/10 12:25:09;;;;;;;21.52;8.98;;;;;;;;;;5107698;28;20259;-74
2024/01/10 12:27:35;;;;;;;18.27;9.15;;;;;;;;;;5099699;28;20020;-74
2024/01/10 12:30:02;;;;;;;19.80;8.95;;;;;;;;;;5108896;28;20020;-74
2024/01/10 12:32:27;;;;;;;19.52;9.15;;;;;;;;;;5110560;28;20028;-73
2024/01/10 12:35:03;;;;;;;17.92;10.07;;;;;;;;;;5112153;28;20207;-73
2024/01/10 12:37:28;;;;;;;18.08;9.00;;;;;;;;;;5111966;28;20038;-74
2024/01/10 12:39:53;;;;;;;21.23;10.17;;;;;;;;;;5109687;28;20020;-74
2024/01/10 12:42:19;;;;;;;20.13;9.20;;;;;;;;;;5105350;28;20663;-75
2024/01/10 12:44:44;;;;;;;18.98;9.45;;;;;;;;;;5110616;28;20039;-74
2024/01/10 12:47:18;;;;;;;19.60;9.30;;;;;;;;;;5106375;28;20098;-74
2024/01/10 12:49:43;;;;;;;18.92;9.45;;;;;;;;;;5107590;28;20028;-74
2024/01/10 12:52:08;;;;;;;19.60;9.80;;;;;;;;;;5111063;28;20080;-75
2024/01/10 12:54:33;;;;;;;16.17;9.53;;;;;;;;;;5111481;28;20293;-75
2024/01/10 12:56:58;;;;;;;18.45;10.88;;;;;;;;;;5105751;28;20341;-74
2024/01/10 12:59:23;;;;;;;19.20;9.88;;;;;;;;;;5108128;28;20360;-75
2024/01/10 13:01:49;;;;;;;17.05;9.63;;;;;;;;;;5101826;28;20011;-75
2024/01/10 13:04:14;;;;;;;21.63;9.63;;;;;;;;;;5109598;28;20040;-75
2024/01/10 13:06:40;;;;;;;19.92;11.25;;;;;;;;;;5109335;28;20264;-75
2024/01/10 13:09:06;;;;;;;18.55;9.88;;;;;;;;;;5111227;28;20016;-75
2024/01/10 13:11:31;;;;;;;19.52;9.88;;;;;;;;;;5110548;28;20439;-75
2024/01/10 13:13:56;;;;;;;21.40;9.48;;;;;;;;;;5111149;28;20019;-75
2024/01/10 13:16:22;;;;;;;15.90;9.85;;;;;;;;;;5110569;28;20374;-74
2024/01/10 13:18:47;;;;;;;21.40;10.38;;;;;;;;;;5107526;28;20020;-74
2024/01/10 13:21:12;;;;;;;22.50;10.60;;;;;;;;;;5106384;28;20020;-74
2024/01/10 13:23:37;;;;;;;19.23;10.85;;;;;;;;;;5111728;28;20269;-74
2024/01/10 13:26:02;;;;;;;20.90;10.00;;;;;;;;;;5109856;28;20015;-75
2024/01/10 13:28:28;;;;;;;17.73;10.40;;;;;;;;;;5112944;28;20024;-75
2024/01/10 13:30:55;;;;;;;19.33;10.88;;;;;;;;;;5104177;28;20052;-75
2024/01/10 13:33:21;;;;;;;21.92;10.23;;;;;;;;;;5105488;28;20115;-75
2024/01/10 13:35:46;;;;;;;24.20;11.20;;;;;;;;;;5111072;28;20490;-75
2024/01/10 13:38:11;;;;;;;20.70;9.90;;;;;;;;;;5104727;28;20294;-75
2024/01/10 13:40:38;;;;;;;23.98;10.52;;;;;;;;;;5112650;28;20815;-75
2024/01/10 13:43:03;;;;;;;23.27;10.32;;;;;;;;;;5105832;28;20018;-75
2024/01/10 13:45:29;;;;;;;20.20;10.18;;;;;;;;;;5105313;28;20023;-74
2024/01/10 13:47:54;;;;;;;19.83;10.23;;;;;;;;;;5111684;28;20040;-74
2024/01/10 13:50:19;;;;;;;20.25;10.75;;;;;;;;;;5106605;28;20417;-75
2024/01/10 13:52:45;;;;;;;19.63;10.30;;;;;;;;;;5105831;28;20019;-75
2024/01/10 13:55:10;;;;;;;19.23;10.23;;;;;;;;;;5107798;28;20356;-75
2024/01/10 13:57:35;;;;;;;20.95;10.07;;;;;;;;;;5109554;28;20293;-75
2024/01/10 14:00:01;;;;;;;19.83;9.68;;;;;;;;;;5110405;28;20031;-74
2024/01/10 14:02:26;;;;;;;19.50;10.07;;;;;;;;;;5105864;28;20038;-74
2024/01/10 14:04:53;;;;;;;19.17;10.02;;;;;;;;;;5107686;28;20475;-74
2024/01/10 14:07:18;;;;;;;18.80;9.90;;;;;;;;;;5103145;28;20020;-74
2024/01/10 14:09:45;;;;;;;20.43;10.57;;;;;;;;;;5110247;28;20077;-74
2024/01/10 14:12:10;;;;;;;21.92;11.02;;;;;;;;;;5104923;28;20667;-74
2024/01/10 14:14:35;;;;;;;20.80;9.63;;;;;;;;;;5105315;28;20023;-74
2024/01/10 14:17:00;;;;;;;17.43;10.13;;;;;;;;;;5106586;28;20320;-74
2024/01/10 14:19:26;;;;;;;20.33;10.68;;;;;;;;;;5106317;28;20791;-74
2024/01/10 14:21:51;;;;;;;19.77;10.38;;;;;;;;;;5108090;28;20019;-74
2024/01/10 14:24:16;;;;;;;20.50;10.43;;;;;;;;;;5104384;28;20045;-74